Αρχική σελίδα
METAR-TAF:

METAR-TAF

Αεροδρόμια :

Όσλο, Νορβηγία

γεωγραφικό πλάτος: 60-12N, γεωγραφικό μήκος: 011-05E, υψόμετρο: 208 μ

Παρών καιρός

Η αναφορά έγινε 41 λεπτά πριν, στις 04:20 UTC
Άνεμος 3 kt από Δ/BΔ, μεταβλητός μεταξύ Δ/ΝΔ και Β
Θερμοκρασία 6°C
Υγρασία 75%
Πίεση 997 hPa
Ορατότητα 10 χλμ και άνω
Δεν υπάρχουν νέφη με βάση κάτω από τα 1500 μ. και δεν υπάρχουν νέφη σωρειτομελανίτες.

METAR: ENGM 230420Z 30003KT 250V360 CAVOK 06/02 Q0997 NOSIG

Χρόνος: 07:01 (05:01 UTC)

Πρόγνωση Καιρού

Η πρόγνωση ισχύει από τις 23 στις 00 UTC έως τις 23 στις 24 UTC
Άνεμος 5 kt από μεταβλητές κατευθύνσεις
Ορατότητα 10 χλμ και άνω
Δεν υπάρχουν νέφη με βάση κάτω από τα 1500 μ. και δεν υπάρχουν νέφη σωρειτομελανίτες.
Καθιστάμενος
από 23 στις 07 UTC έως τις 23 στις 09 UTC
Άνεμος 10 kt από

TAF: ENGM 2300/2324 VRB05KT CAVOK BECMG 2307/2309 32010KT

Μετεωρολογικές αναφορές και προγνώσεις για περισσότερα από 4000 αεροδρόμια (δελτία METAR και TAF).

Οι διαθέσιμοι σταθμοί απεικονίζονται στο χάρτη με κίτρινες και κόκκινες κουκκίδες.

Μετακινήστε το ποντίκι πάνω από τις κουκκίδες για να δείτε το όνομα του σταθμού.

Στη συνέχεια, κάντε κλικ για να δείτε τις μετεωρολογικές αναφορές και τις προγνώσεις καιρού.

Για να αλλάξετε το χάρτη: κάντε κλικ στα πράσινα κουμπιά με τον μαύρο σταυρό για να ζουμάρετε, στο πράσινο κουμπί με την παύλα για να αφαιρέσετε το ζουμ ή στα πράσινα βέλη για να αντιπαραβάλλετε χάρτες.


METAR-TAF: